sensor_id;sensor_type;location;lat;lon;timestamp;pressure;altitude;pressure_sealevel;temperature;humidity
9474;BME280;8865;47.636;7.692;2022-07-19T00:00:31;98533.63;;;21.17;nan
9474;BME280;8865;47.636;7.692;2022-07-19T00:02:57;98521.47;;;21.08;nan
9474;BME280;8865;47.636;7.692;2022-07-19T00:05:23;98515.72;;;21.04;nan
9474;BME280;8865;47.636;7.692;2022-07-19T00:07:49;98519.78;;;21.00;nan
9474;BME280;8865;47.636;7.692;2022-07-19T00:10:17;98517.31;;;20.99;nan
9474;BME280;8865;47.636;7.692;2022-07-19T00:12:44;98516.50;;;20.98;nan
9474;BME280;8865;47.636;7.692;2022-07-19T00:15:12;98516.81;;;20.88;nan
9474;BME280;8865;47.636;7.692;2022-07-19T00:17:43;98512.72;;;20.86;nan
9474;BME280;8865;47.636;7.692;2022-07-19T00:20:11;98513.09;;;20.83;nan
9474;BME280;8865;47.636;7.692;2022-07-19T00:22:37;98503.63;;;20.80;nan
9474;BME280;8865;47.636;7.692;2022-07-19T00:25:04;98507.88;;;20.75;nan
9474;BME280;8865;47.636;7.692;2022-07-19T00:27:30;98503.13;;;20.70;nan
9474;BME280;8865;47.636;7.692;2022-07-19T00:29:56;98508.66;;;20.68;nan
9474;BME280;8865;47.636;7.692;2022-07-19T00:32:22;98507.22;;;20.66;nan
9474;BME280;8865;47.636;7.692;2022-07-19T00:34:48;98512.44;;;20.59;nan
9474;BME280;8865;47.636;7.692;2022-07-19T00:37:14;98506.66;;;20.56;nan
9474;BME280;8865;47.636;7.692;2022-07-19T00:39:41;98500.91;;;20.52;nan
9474;BME280;8865;47.636;7.692;2022-07-19T00:42:07;98504.34;;;20.46;nan
9474;BME280;8865;47.636;7.692;2022-07-19T00:44:33;98501.88;;;20.44;nan
9474;BME280;8865;47.636;7.692;2022-07-19T00:46:59;98504.91;;;20.41;nan
9474;BME280;8865;47.636;7.692;2022-07-19T00:49:25;98498.31;;;20.37;nan
9474;BME280;8865;47.636;7.692;2022-07-19T00:51:51;98502.16;;;20.34;nan
9474;BME280;8865;47.636;7.692;2022-07-19T00:54:18;98496.22;;;20.32;nan
9474;BME280;8865;47.636;7.692;2022-07-19T00:56:48;98495.78;;;20.29;nan
9474;BME280;8865;47.636;7.692;2022-07-19T00:59:14;98501.47;;;20.26;nan
9474;BME280;8865;47.636;7.692;2022-07-19T01:01:41;98500.81;;;20.24;nan
9474;BME280;8865;47.636;7.692;2022-07-19T01:04:10;98501.00;;;20.22;nan
9474;BME280;8865;47.636;7.692;2022-07-19T01:06:37;98496.25;;;20.17;nan
9474;BME280;8865;47.636;7.692;2022-07-19T01:09:04;98504.16;;;20.11;nan
9474;BME280;8865;47.636;7.692;2022-07-19T01:11:31;98497.69;;;19.98;nan
9474;BME280;8865;47.636;7.692;2022-07-19T01:13:57;98515.66;;;19.96;nan
9474;BME280;8865;47.636;7.692;2022-07-19T01:16:23;98504.38;;;19.94;nan
9474;BME280;8865;47.636;7.692;2022-07-19T01:18:49;98511.75;;;19.92;nan
9474;BME280;8865;47.636;7.692;2022-07-19T01:21:21;98518.44;;;19.88;nan
9474;BME280;8865;47.636;7.692;2022-07-19T01:23:48;98507.16;;;19.86;nan
9474;BME280;8865;47.636;7.692;2022-07-19T01:26:14;98506.78;;;19.89;nan
9474;BME280;8865;47.636;7.692;2022-07-19T01:28:41;98507.16;;;19.86;nan
9474;BME280;8865;47.636;7.692;2022-07-19T01:31:07;98497.91;;;19.82;nan
9474;BME280;8865;47.636;7.692;2022-07-19T01:33:41;98498.72;;;19.83;nan
9474;BME280;8865;47.636;7.692;2022-07-19T01:36:08;98494.63;;;19.80;nan
9474;BME280;8865;47.636;7.692;2022-07-19T01:38:34;98500.13;;;19.78;nan
9474;BME280;8865;47.636;7.692;2022-07-19T01:41:00;98495.94;;;19.76;nan
9474;BME280;8865;47.636;7.692;2022-07-19T01:43:26;98493.47;;;19.74;nan
9474;BME280;8865;47.636;7.692;2022-07-19T01:45:52;98496.50;;;19.71;nan
9474;BME280;8865;47.636;7.692;2022-07-19T01:48:21;98499.16;;;19.71;nan
9474;BME280;8865;47.636;7.692;2022-07-19T01:50:47;98495.69;;;19.71;nan
9474;BME280;8865;47.636;7.692;2022-07-19T01:53:13;98498.34;;;19.71;nan
9474;BME280;8865;47.636;7.692;2022-07-19T01:55:39;98498.72;;;19.68;nan
9474;BME280;8865;47.636;7.692;2022-07-19T01:58:05;98505.59;;;19.62;nan
9474;BME280;8865;47.636;7.692;2022-07-19T02:00:32;98496.34;;;19.58;nan
9474;BME280;8865;47.636;7.692;2022-07-19T02:02:58;98495.44;;;19.51;nan
9474;BME280;8865;47.636;7.692;2022-07-19T02:05:24;98495.63;;;19.49;nan
9474;BME280;8865;47.636;7.692;2022-07-19T02:07:50;98494.34;;;19.45;nan
9474;BME280;8865;47.636;7.692;2022-07-19T02:10:17;98487.72;;;19.41;nan
9474;BME280;8865;47.636;7.692;2022-07-19T02:12:43;98484.44;;;19.39;nan
9474;BME280;8865;47.636;7.692;2022-07-19T02:15:10;98482.50;;;19.33;nan
9474;BME280;8865;47.636;7.692;2022-07-19T02:17:37;98481.69;;;19.32;nan
9474;BME280;8865;47.636;7.692;2022-07-19T02:20:04;98483.88;;;19.28;nan
9474;BME280;8865;47.636;7.692;2022-07-19T02:22:30;98489.75;;;19.24;nan
9474;BME280;8865;47.636;7.692;2022-07-19T02:24:56;98484.44;;;19.24;nan
9474;BME280;8865;47.636;7.692;2022-07-19T02:27:22;98483.97;;;19.20;nan
9474;BME280;8865;47.636;7.692;2022-07-19T02:29:48;98479.41;;;19.14;nan
9474;BME280;8865;47.636;7.692;2022-07-19T02:32:14;98480.56;;;19.12;nan
9474;BME280;8865;47.636;7.692;2022-07-19T02:34:41;98483.22;;;19.12;nan
9474;BME280;8865;47.636;7.692;2022-07-19T02:37:07;98483.78;;;19.07;nan
9474;BME280;8865;47.636;7.692;2022-07-19T02:39:33;98480.47;;;19.05;nan
9474;BME280;8865;47.636;7.692;2022-07-19T02:41:59;98479.19;;;19.01;nan
9474;BME280;8865;47.636;7.692;2022-07-19T02:44:25;98477.56;;;19.00;nan
9474;BME280;8865;47.636;7.692;2022-07-19T02:46:51;98475.91;;;18.99;nan
9474;BME280;8865;47.636;7.692;2022-07-19T02:49:17;98470.94;;;18.96;nan
9474;BME280;8865;47.636;7.692;2022-07-19T02:51:43;98466.47;;;18.96;nan
9474;BME280;8865;47.636;7.692;2022-07-19T02:54:09;98471.50;;;18.91;nan
9474;BME280;8865;47.636;7.692;2022-07-19T02:56:35;98480.44;;;18.90;nan
9474;BME280;8865;47.636;7.692;2022-07-19T02:59:04;98475.03;;;18.83;nan
9474;BME280;8865;47.636;7.692;2022-07-19T03:01:30;98482.84;;;18.85;nan
9474;BME280;8865;47.636;7.692;2022-07-19T03:03:57;98478.66;;;18.82;nan
9474;BME280;8865;47.636;7.692;2022-07-19T03:06:23;98479.84;;;18.80;nan
9474;BME280;8865;47.636;7.692;2022-07-19T03:08:49;98474.06;;;18.76;nan
9474;BME280;8865;47.636;7.692;2022-07-19T03:11:15;98473.44;;;18.74;nan
9474;BME280;8865;47.636;7.692;2022-07-19T03:13:41;98478.25;;;18.70;nan
9474;BME280;8865;47.636;7.692;2022-07-19T03:16:07;98476.47;;;18.71;nan
9474;BME280;8865;47.636;7.692;2022-07-19T03:18:34;98470.66;;;18.67;nan
9474;BME280;8865;47.636;7.692;2022-07-19T03:21:01;98478.00;;;18.65;nan
9474;BME280;8865;47.636;7.692;2022-07-19T03:23:30;98479.16;;;18.63;nan
9474;BME280;8865;47.636;7.692;2022-07-19T03:25:57;98474.88;;;18.62;nan
9474;BME280;8865;47.636;7.692;2022-07-19T03:28:23;98478.69;;;18.59;nan
9474;BME280;8865;47.636;7.692;2022-07-19T03:30:49;98478.88;;;18.58;nan
9474;BME280;8865;47.636;7.692;2022-07-19T03:33:15;98477.56;;;18.53;nan
9474;BME280;8865;47.636;7.692;2022-07-19T03:35:45;98474.28;;;18.51;nan
9474;BME280;8865;47.636;7.692;2022-07-19T03:38:12;98472.53;;;18.44;nan
9474;BME280;8865;47.636;7.692;2022-07-19T03:40:39;98469.22;;;18.42;nan
9474;BME280;8865;47.636;7.692;2022-07-19T03:43:06;98474.03;;;18.38;nan
9474;BME280;8865;47.636;7.692;2022-07-19T03:45:32;98475.09;;;18.29;nan
9474;BME280;8865;47.636;7.692;2022-07-19T03:47:58;98473.31;;;18.29;nan
9474;BME280;8865;47.636;7.692;2022-07-19T03:50:24;98479.06;;;18.33;nan
9474;BME280;8865;47.636;7.692;2022-07-19T03:52:50;98482.06;;;18.30;nan
9474;BME280;8865;47.636;7.692;2022-07-19T03:55:16;98492.69;;;18.30;nan
9474;BME280;8865;47.636;7.692;2022-07-19T03:57:42;98487.19;;;18.31;nan
9474;BME280;8865;47.636;7.692;2022-07-19T04:00:08;98489.84;;;18.31;nan
9474;BME280;8865;47.636;7.692;2022-07-19T04:02:34;98497.81;;;18.31;nan
9474;BME280;8865;47.636;7.692;2022-07-19T04:05:00;98489.22;;;18.29;nan
9474;BME280;8865;47.636;7.692;2022-07-19T04:07:26;98493.66;;;18.29;nan
9474;BME280;8865;47.636;7.692;2022-07-19T04:09:52;98495.31;;;18.30;nan
9474;BME280;8865;47.636;7.692;2022-07-19T04:12:18;98486.56;;;18.29;nan
9474;BME280;8865;47.636;7.692;2022-07-19T04:14:44;98493.66;;;18.29;nan
9474;BME280;8865;47.636;7.692;2022-07-19T04:17:10;98497.34;;;18.28;nan
9474;BME280;8865;47.636;7.692;2022-07-19T04:19:36;98502.28;;;18.31;nan
9474;BME280;8865;47.636;7.692;2022-07-19T04:22:02;98504.09;;;18.30;nan
9474;BME280;8865;47.636;7.692;2022-07-19T04:24:28;98502.94;;;18.33;nan
9474;BME280;8865;47.636;7.692;2022-07-19T04:26:54;98501.28;;;18.32;nan
9474;BME280;8865;47.636;7.692;2022-07-19T04:29:20;98506.03;;;18.36;nan
9474;BME280;8865;47.636;7.692;2022-07-19T04:31:46;98510.19;;;18.39;nan
9474;BME280;8865;47.636;7.692;2022-07-19T04:34:12;98514.50;;;18.40;nan
9474;BME280;8865;47.636;7.692;2022-07-19T04:36:38;98508.66;;;18.45;nan
9474;BME280;8865;47.636;7.692;2022-07-19T04:39:04;98508.66;;;18.45;nan
9474;BME280;8865;47.636;7.692;2022-07-19T04:41:30;98509.13;;;18.48;nan
9474;BME280;8865;47.636;7.692;2022-07-19T04:43:56;98509.75;;;18.50;nan
9474;BME280;8865;47.636;7.692;2022-07-19T04:46:22;98511.88;;;18.55;nan
9474;BME280;8865;47.636;7.692;2022-07-19T04:48:48;98516.03;;;18.58;nan
9474;BME280;8865;47.636;7.692;2022-07-19T04:51:14;98508.34;;;18.63;nan
9474;BME280;8865;47.636;7.692;2022-07-19T04:53:40;98513.97;;;18.68;nan
9474;BME280;8865;47.636;7.692;2022-07-19T04:56:06;98516.06;;;18.72;nan
9474;BME280;8865;47.636;7.692;2022-07-19T04:58:32;98515.38;;;18.79;nan
9474;BME280;8865;47.636;7.692;2022-07-19T05:00:58;98513.81;;;18.84;nan
9474;BME280;8865;47.636;7.692;2022-07-19T05:03:24;98512.13;;;18.91;nan
9474;BME280;8865;47.636;7.692;2022-07-19T05:05:50;98519.72;;;18.95;nan
9474;BME280;8865;47.636;7.692;2022-07-19T05:08:16;98507.75;;;18.99;nan
9474;BME280;8865;47.636;7.692;2022-07-19T05:10:43;98503.75;;;19.03;nan
9474;BME280;8865;47.636;7.692;2022-07-19T05:13:09;98510.81;;;19.11;nan
9474;BME280;8865;47.636;7.692;2022-07-19T05:15:35;98506.59;;;19.16;nan
9474;BME280;8865;47.636;7.692;2022-07-19T05:18:01;98503.00;;;19.24;nan
9474;BME280;8865;47.636;7.692;2022-07-19T05:20:28;98510.25;;;19.30;nan
9474;BME280;8865;47.636;7.692;2022-07-19T05:22:54;98499.75;;;19.37;nan
9474;BME280;8865;47.636;7.692;2022-07-19T05:25:20;98497.00;;;19.45;nan
9474;BME280;8865;47.636;7.692;2022-07-19T05:27:46;98507.50;;;19.53;nan
9474;BME280;8865;47.636;7.692;2022-07-19T05:30:12;98500.28;;;19.62;nan
9474;BME280;8865;47.636;7.692;2022-07-19T05:32:39;98495.50;;;19.72;nan
9474;BME280;8865;47.636;7.692;2022-07-19T05:35:05;98496.44;;;19.79;nan
9474;BME280;8865;47.636;7.692;2022-07-19T05:37:31;98493.50;;;19.89;nan
9474;BME280;8865;47.636;7.692;2022-07-19T05:39:57;98486.41;;;19.96;nan
9474;BME280;8865;47.636;7.692;2022-07-19T05:42:23;98487.78;;;20.07;nan
9474;BME280;8865;47.636;7.692;2022-07-19T05:44:49;98490.31;;;20.15;nan
9474;BME280;8865;47.636;7.692;2022-07-19T05:47:15;98488.38;;;20.24;nan
9474;BME280;8865;47.636;7.692;2022-07-19T05:49:41;98492.28;;;20.28;nan
9474;BME280;8865;47.636;7.692;2022-07-19T05:52:07;98496.47;;;20.38;nan
9474;BME280;8865;47.636;7.692;2022-07-19T05:54:33;98489.38;;;20.45;nan
9474;BME280;8865;47.636;7.692;2022-07-19T05:56:59;98485.75;;;20.52;nan
9474;BME280;8865;47.636;7.692;2022-07-19T05:59:25;98487.09;;;20.63;nan
9474;BME280;8865;47.636;7.692;2022-07-19T06:01:51;98489.25;;;20.75;nan
9474;BME280;8865;47.636;7.692;2022-07-19T06:04:17;98485.25;;;20.85;nan
9474;BME280;8865;47.636;7.692;2022-07-19T06:06:43;98482.69;;;20.99;nan
9474;BME280;8865;47.636;7.692;2022-07-19T06:09:09;98484.63;;;21.12;nan
9474;BME280;8865;47.636;7.692;2022-07-19T06:11:40;98490.88;;;21.26;nan
9474;BME280;8865;47.636;7.692;2022-07-19T06:14:07;98495.44;;;21.38;nan
9474;BME280;8865;47.636;7.692;2022-07-19T06:16:38;98491.03;;;21.52;nan
9474;BME280;8865;47.636;7.692;2022-07-19T06:19:07;98492.31;;;21.63;nan
9474;BME280;8865;47.636;7.692;2022-07-19T06:21:33;98489.09;;;21.74;nan
9474;BME280;8865;47.636;7.692;2022-07-19T06:24:00;98489.56;;;21.85;nan
9474;BME280;8865;47.636;7.692;2022-07-19T06:26:26;98492.06;;;22.00;nan
9474;BME280;8865;47.636;7.692;2022-07-19T06:28:53;98488.63;;;22.12;nan
9474;BME280;8865;47.636;7.692;2022-07-19T06:31:19;98489.66;;;22.25;nan
9474;BME280;8865;47.636;7.692;2022-07-19T06:33:47;98484.19;;;22.40;nan
9474;BME280;8865;47.636;7.692;2022-07-19T06:36:15;98484.00;;;22.55;nan
9474;BME280;8865;47.636;7.692;2022-07-19T06:38:41;98480.09;;;22.71;nan
9474;BME280;8865;47.636;7.692;2022-07-19T06:41:09;98482.59;;;22.86;nan
9474;BME280;8865;47.636;7.692;2022-07-19T06:43:35;98477.84;;;23.01;nan
9474;BME280;8865;47.636;7.692;2022-07-19T06:46:01;98480.50;;;23.14;nan
9474;BME280;8865;47.636;7.692;2022-07-19T06:48:27;98475.16;;;23.28;nan
9474;BME280;8865;47.636;7.692;2022-07-19T06:50:53;98474.69;;;23.44;nan
9474;BME280;8865;47.636;7.692;2022-07-19T06:53:19;98477.56;;;23.56;nan
9474;BME280;8865;47.636;7.692;2022-07-19T06:55:45;98479.72;;;23.72;nan
9474;BME280;8865;47.636;7.692;2022-07-19T06:58:12;98480.72;;;23.92;nan
9474;BME280;8865;47.636;7.692;2022-07-19T07:00:38;98474.09;;;24.01;nan
9474;BME280;8865;47.636;7.692;2022-07-19T07:03:04;98473.75;;;24.22;nan
9474;BME280;8865;47.636;7.692;2022-07-19T07:05:30;98483.19;;;24.32;nan
9474;BME280;8865;47.636;7.692;2022-07-19T07:07:56;98473.63;;;24.42;nan
9474;BME280;8865;47.636;7.692;2022-07-19T07:10:22;98478.28;;;24.54;nan
9474;BME280;8865;47.636;7.692;2022-07-19T07:12:49;98472.19;;;24.72;nan
9474;BME280;8865;47.636;7.692;2022-07-19T07:15:15;98468.59;;;24.85;nan
9474;BME280;8865;47.636;7.692;2022-07-19T07:17:41;98471.38;;;24.96;nan
9474;BME280;8865;47.636;7.692;2022-07-19T07:20:07;98470.28;;;25.04;nan
9474;BME280;8865;47.636;7.692;2022-07-19T07:22:34;98480.44;;;25.21;nan
9474;BME280;8865;47.636;7.692;2022-07-19T07:25:01;98476.44;;;25.30;nan
9474;BME280;8865;47.636;7.692;2022-07-19T07:27:27;98468.72;;;25.40;nan
9474;BME280;8865;47.636;7.692;2022-07-19T07:29:53;98467.63;;;25.60;nan
9474;BME280;8865;47.636;7.692;2022-07-19T07:32:19;98466.28;;;25.69;nan
9474;BME280;8865;47.636;7.692;2022-07-19T07:34:45;98463.69;;;25.81;nan
9474;BME280;8865;47.636;7.692;2022-07-19T07:37:12;98457.31;;;25.94;nan
9474;BME280;8865;47.636;7.692;2022-07-19T07:39:38;98459.72;;;26.02;nan
9474;BME280;8865;47.636;7.692;2022-07-19T07:42:05;98455.91;;;26.10;nan
9474;BME280;8865;47.636;7.692;2022-07-19T07:44:31;98459.22;;;26.24;nan
9474;BME280;8865;47.636;7.692;2022-07-19T07:46:57;98451.53;;;26.39;nan
9474;BME280;8865;47.636;7.692;2022-07-19T07:49:23;98448.03;;;26.50;nan
9474;BME280;8865;47.636;7.692;2022-07-19T07:51:49;98453.44;;;26.62;nan
9474;BME280;8865;47.636;7.692;2022-07-19T07:54:16;98456.28;;;26.79;nan
9474;BME280;8865;47.636;7.692;2022-07-19T07:56:42;98446.59;;;26.90;nan
9474;BME280;8865;47.636;7.692;2022-07-19T07:59:07;98449.63;;;26.94;nan
9474;BME280;8865;47.636;7.692;2022-07-19T08:01:33;98448.44;;;27.13;nan
9474;BME280;8865;47.636;7.692;2022-07-19T08:04:00;98443.63;;;27.27;nan
9474;BME280;8865;47.636;7.692;2022-07-19T08:06:26;98438.03;;;27.40;nan
9474;BME280;8865;47.636;7.692;2022-07-19T08:08:52;98440.25;;;27.55;nan
9474;BME280;8865;47.636;7.692;2022-07-19T08:11:18;98435.28;;;27.64;nan
9474;BME280;8865;47.636;7.692;2022-07-19T08:13:44;98432.88;;;27.79;nan
9474;BME280;8865;47.636;7.692;2022-07-19T08:16:10;98435.22;;;27.88;nan
9474;BME280;8865;47.636;7.692;2022-07-19T08:18:36;98431.75;;;28.04;nan
9474;BME280;8865;47.636;7.692;2022-07-19T08:21:02;98432.75;;;28.15;nan
9474;BME280;8865;47.636;7.692;2022-07-19T08:23:28;98434.56;;;28.26;nan
9474;BME280;8865;47.636;7.692;2022-07-19T08:25:54;98426.09;;;28.35;nan
9474;BME280;8865;47.636;7.692;2022-07-19T08:28:20;98427.22;;;28.39;nan
9474;BME280;8865;47.636;7.692;2022-07-19T08:30:46;98431.47;;;28.51;nan
9474;BME280;8865;47.636;7.692;2022-07-19T08:33:12;98417.03;;;28.58;nan
9474;BME280;8865;47.636;7.692;2022-07-19T08:35:38;98422.38;;;28.70;nan
9474;BME280;8865;47.636;7.692;2022-07-19T08:38:04;98417.75;;;28.87;nan
9474;BME280;8865;47.636;7.692;2022-07-19T08:40:33;98411.81;;;29.07;nan
9474;BME280;8865;47.636;7.692;2022-07-19T08:43:02;98408.31;;;29.24;nan
9474;BME280;8865;47.636;7.692;2022-07-19T08:45:29;98410.94;;;29.41;nan
9474;BME280;8865;47.636;7.692;2022-07-19T08:47:57;98407.59;;;29.55;nan
9474;BME280;8865;47.636;7.692;2022-07-19T08:50:25;98404.78;;;29.67;nan
9474;BME280;8865;47.636;7.692;2022-07-19T08:52:51;98401.88;;;29.74;nan
9474;BME280;8865;47.636;7.692;2022-07-19T08:55:18;98401.81;;;29.91;nan
9474;BME280;8865;47.636;7.692;2022-07-19T08:57:44;98398.38;;;30.01;nan
9474;BME280;8865;47.636;7.692;2022-07-19T09:00:30;98404.53;;;30.23;nan
9474;BME280;8865;47.636;7.692;2022-07-19T09:03:00;98396.50;;;30.34;nan
9474;BME280;8865;47.636;7.692;2022-07-19T09:05:28;98399.88;;;30.46;nan
9474;BME280;8865;47.636;7.692;2022-07-19T09:08:06;98392.69;;;30.62;nan
9474;BME280;8865;47.636;7.692;2022-07-19T09:10:34;98396.63;;;30.87;nan
9474;BME280;8865;47.636;7.692;2022-07-19T09:15:40;98393.78;;;31.04;nan
9474;BME280;8865;47.636;7.692;2022-07-19T09:18:25;98393.06;;;31.24;nan
9474;BME280;8865;47.636;7.692;2022-07-19T09:20:54;98400.44;;;31.44;nan
9474;BME280;8865;47.636;7.692;2022-07-19T09:23:20;98392.16;;;31.66;nan
9474;BME280;8865;47.636;7.692;2022-07-19T09:25:50;98388.13;;;31.84;nan
9474;BME280;8865;47.636;7.692;2022-07-19T09:28:18;98384.59;;;31.99;nan
9474;BME280;8865;47.636;7.692;2022-07-19T09:30:47;98384.66;;;32.14;nan
9474;BME280;8865;47.636;7.692;2022-07-19T09:33:18;98386.00;;;32.32;nan
9474;BME280;8865;47.636;7.692;2022-07-19T09:35:55;98380.03;;;32.51;nan
9474;BME280;8865;47.636;7.692;2022-07-19T09:38:27;98376.25;;;32.52;nan
9474;BME280;8865;47.636;7.692;2022-07-19T09:43:52;98375.34;;;33.03;nan
9474;BME280;8865;47.636;7.692;2022-07-19T09:49:17;98370.88;;;33.33;nan
9474;BME280;8865;47.636;7.692;2022-07-19T09:51:45;98361.56;;;33.49;nan
9474;BME280;8865;47.636;7.692;2022-07-19T09:54:17;98367.13;;;33.78;nan
9474;BME280;8865;47.636;7.692;2022-07-19T09:56:44;98355.41;;;33.88;nan
9474;BME280;8865;47.636;7.692;2022-07-19T09:59:11;98354.72;;;34.02;nan
9474;BME280;8865;47.636;7.692;2022-07-19T10:01:37;98351.53;;;34.58;nan
9474;BME280;8865;47.636;7.692;2022-07-19T10:06:37;98349.22;;;35.43;nan
9474;BME280;8865;47.636;7.692;2022-07-19T10:09:05;98342.22;;;35.56;nan
9474;BME280;8865;47.636;7.692;2022-07-19T10:11:32;98338.53;;;36.04;nan
9474;BME280;8865;47.636;7.692;2022-07-19T10:13:59;98339.06;;;36.53;nan
9474;BME280;8865;47.636;7.692;2022-07-19T10:19:17;98337.16;;;37.09;nan
9474;BME280;8865;47.636;7.692;2022-07-19T10:21:45;98330.59;;;37.24;nan
9474;BME280;8865;47.636;7.692;2022-07-19T10:24:12;98325.84;;;37.29;nan
9474;BME280;8865;47.636;7.692;2022-07-19T10:26:40;98329.13;;;37.77;nan
9474;BME280;8865;47.636;7.692;2022-07-19T10:29:16;98327.31;;;38.40;nan
9474;BME280;8865;47.636;7.692;2022-07-19T10:31:43;98324.13;;;38.87;nan
9474;BME280;8865;47.636;7.692;2022-07-19T10:34:21;98330.72;;;39.52;nan
9474;BME280;8865;47.636;7.692;2022-07-19T10:36:49;98320.41;;;40.58;nan
9474;BME280;8865;47.636;7.692;2022-07-19T10:42:15;98313.63;;;42.11;nan
9474;BME280;8865;47.636;7.692;2022-07-19T10:50:07;98308.16;;;44.20;nan
9474;BME280;8865;47.636;7.692;2022-07-19T10:52:37;98305.22;;;45.08;nan
9474;BME280;8865;47.636;7.692;2022-07-19T11:00:30;98287.69;;;47.29;nan
9474;BME280;8865;47.636;7.692;2022-07-19T11:05:53;98283.31;;;48.40;nan
9474;BME280;8865;47.636;7.692;2022-07-19T11:08:38;98279.69;;;48.85;nan
9474;BME280;8865;47.636;7.692;2022-07-19T11:11:08;98278.31;;;49.30;nan
9474;BME280;8865;47.636;7.692;2022-07-19T11:13:36;98274.97;;;49.98;nan
9474;BME280;8865;47.636;7.692;2022-07-19T11:16:02;98267.75;;;49.72;nan
9474;BME280;8865;47.636;7.692;2022-07-19T11:18:30;98265.75;;;50.81;nan
9474;BME280;8865;47.636;7.692;2022-07-19T11:20:57;98259.34;;;50.98;nan
9474;BME280;8865;47.636;7.692;2022-07-19T11:23:27;98258.00;;;51.32;nan
9474;BME280;8865;47.636;7.692;2022-07-19T11:26:05;98263.63;;;49.26;nan
9474;BME280;8865;47.636;7.692;2022-07-19T11:28:31;98261.88;;;47.92;nan
9474;BME280;8865;47.636;7.692;2022-07-19T11:30:57;98240.56;;;49.33;nan
9474;BME280;8865;47.636;7.692;2022-07-19T11:33:23;98244.31;;;50.27;nan
9474;BME280;8865;47.636;7.692;2022-07-19T11:35:57;98247.69;;;51.92;nan
9474;BME280;8865;47.636;7.692;2022-07-19T11:38:55;98236.06;;;51.37;nan
9474;BME280;8865;47.636;7.692;2022-07-19T11:41:22;98235.53;;;52.93;nan
9474;BME280;8865;47.636;7.692;2022-07-19T11:46:25;98229.81;;;52.27;nan
9474;BME280;8865;47.636;7.692;2022-07-19T11:49:00;98229.47;;;53.32;nan
9474;BME280;8865;47.636;7.692;2022-07-19T11:51:26;98228.38;;;52.08;nan
9474;BME280;8865;47.636;7.692;2022-07-19T11:53:55;98234.47;;;52.83;nan
9474;BME280;8865;47.636;7.692;2022-07-19T11:56:23;98224.44;;;52.02;nan
9474;BME280;8865;47.636;7.692;2022-07-19T11:58:52;98227.88;;;49.50;nan
9474;BME280;8865;47.636;7.692;2022-07-19T12:04:01;98214.78;;;50.77;nan
9474;BME280;8865;47.636;7.692;2022-07-19T12:06:45;98210.13;;;51.93;nan
9474;BME280;8865;47.636;7.692;2022-07-19T12:09:27;98213.53;;;53.26;nan
9474;BME280;8865;47.636;7.692;2022-07-19T12:11:55;98207.56;;;52.55;nan
9474;BME280;8865;47.636;7.692;2022-07-19T12:14:28;98203.31;;;50.06;nan
9474;BME280;8865;47.636;7.692;2022-07-19T12:17:19;98199.34;;;50.25;nan
9474;BME280;8865;47.636;7.692;2022-07-19T12:22:36;98188.38;;;48.97;nan
9474;BME280;8865;47.636;7.692;2022-07-19T12:25:04;98182.00;;;48.93;nan
9474;BME280;8865;47.636;7.692;2022-07-19T12:27:31;98183.16;;;51.12;nan
9474;BME280;8865;47.636;7.692;2022-07-19T12:29:58;98174.31;;;51.21;nan
9474;BME280;8865;47.636;7.692;2022-07-19T12:32:37;98177.03;;;52.37;nan
9474;BME280;8865;47.636;7.692;2022-07-19T12:35:12;98180.25;;;53.59;nan
9474;BME280;8865;47.636;7.692;2022-07-19T12:37:40;98173.38;;;54.54;nan
9474;BME280;8865;47.636;7.692;2022-07-19T12:42:42;98185.44;;;52.71;nan
9474;BME280;8865;47.636;7.692;2022-07-19T12:45:11;98178.50;;;52.07;nan
9474;BME280;8865;47.636;7.692;2022-07-19T12:47:37;98174.47;;;50.92;nan
9474;BME280;8865;47.636;7.692;2022-07-19T12:50:04;98172.66;;;51.34;nan
9474;BME280;8865;47.636;7.692;2022-07-19T12:52:30;98167.75;;;52.05;nan
9474;BME280;8865;47.636;7.692;2022-07-19T12:54:57;98170.44;;;53.19;nan
9474;BME280;8865;47.636;7.692;2022-07-19T12:57:22;98167.59;;;53.50;nan
9474;BME280;8865;47.636;7.692;2022-07-19T12:59:48;98161.72;;;50.95;nan
9474;BME280;8865;47.636;7.692;2022-07-19T13:02:17;98160.69;;;49.48;nan
9474;BME280;8865;47.636;7.692;2022-07-19T13:04:44;98155.53;;;49.82;nan
9474;BME280;8865;47.636;7.692;2022-07-19T13:07:12;98156.69;;;49.49;nan
9474;BME280;8865;47.636;7.692;2022-07-19T13:09:39;98151.59;;;49.80;nan
9474;BME280;8865;47.636;7.692;2022-07-19T13:12:06;98147.63;;;49.74;nan
9474;BME280;8865;47.636;7.692;2022-07-19T13:14:36;98144.38;;;49.28;nan
9474;BME280;8865;47.636;7.692;2022-07-19T13:17:03;98144.97;;;48.78;nan
9474;BME280;8865;47.636;7.692;2022-07-19T13:19:29;98140.34;;;47.75;nan
9474;BME280;8865;47.636;7.692;2022-07-19T13:21:55;98145.75;;;47.61;nan
9474;BME280;8865;47.636;7.692;2022-07-19T13:24:21;98144.22;;;47.67;nan
9474;BME280;8865;47.636;7.692;2022-07-19T13:26:48;98140.03;;;47.43;nan
9474;BME280;8865;47.636;7.692;2022-07-19T13:29:14;98136.09;;;47.44;nan
9474;BME280;8865;47.636;7.692;2022-07-19T13:31:40;98134.34;;;47.28;nan
9474;BME280;8865;47.636;7.692;2022-07-19T13:34:06;98130.63;;;47.99;nan
9474;BME280;8865;47.636;7.692;2022-07-19T13:36:32;98128.03;;;49.12;nan
9474;BME280;8865;47.636;7.692;2022-07-19T13:38:58;98125.31;;;49.48;nan
9474;BME280;8865;47.636;7.692;2022-07-19T13:41:24;98128.97;;;48.47;nan
9474;BME280;8865;47.636;7.692;2022-07-19T13:43:50;98121.34;;;50.03;nan
9474;BME280;8865;47.636;7.692;2022-07-19T13:46:19;98125.28;;;50.31;nan
9474;BME280;8865;47.636;7.692;2022-07-19T13:48:46;98122.06;;;49.14;nan
9474;BME280;8865;47.636;7.692;2022-07-19T13:51:12;98112.22;;;49.74;nan
9474;BME280;8865;47.636;7.692;2022-07-19T13:53:38;98118.56;;;49.93;nan
9474;BME280;8865;47.636;7.692;2022-07-19T13:56:05;98114.84;;;46.26;nan
9474;BME280;8865;47.636;7.692;2022-07-19T13:58:32;98118.31;;;45.04;nan
9474;BME280;8865;47.636;7.692;2022-07-19T14:00:58;98108.53;;;43.52;nan
9474;BME280;8865;47.636;7.692;2022-07-19T14:03:24;98112.06;;;41.90;nan
9474;BME280;8865;47.636;7.692;2022-07-19T14:05:50;98100.72;;;42.28;nan
9474;BME280;8865;47.636;7.692;2022-07-19T14:08:16;98094.16;;;42.86;nan
9474;BME280;8865;47.636;7.692;2022-07-19T14:10:43;98092.69;;;43.33;nan
9474;BME280;8865;47.636;7.692;2022-07-19T14:13:09;98087.63;;;43.83;nan
9474;BME280;8865;47.636;7.692;2022-07-19T14:15:36;98091.25;;;44.03;nan
9474;BME280;8865;47.636;7.692;2022-07-19T14:18:02;98087.47;;;43.92;nan
9474;BME280;8865;47.636;7.692;2022-07-19T14:20:27;98081.41;;;43.86;nan
9474;BME280;8865;47.636;7.692;2022-07-19T14:22:54;98082.38;;;43.94;nan
9474;BME280;8865;47.636;7.692;2022-07-19T14:25:20;98080.44;;;43.62;nan